Date,TemperatureHighF,TemperatureAvgF,TemperatureLowF,DewpointHighF,DewpointAvgF,DewpointLowF,HumidityHigh,HumidityAvg,HumidityLow,PressureMaxIn,PressureMinIn,WindSpeedMaxMPH,WindSpeedAvgMPH,GustSpeedMaxMPH,PrecipitationSumIn
2013-1-22,77,59,47,40,32,20,60,40,15,30.04,29.98,9,2,13,0.00
2013-1-23,71,54,46,49,41,30,88,64,26,30.05,29.93,10,0,17,0.00
2013-1-24,58,53,52,53,50,45,95,88,63,30.03,29.99,12,1,12,0.34
2013-1-25,72,62,53,60,55,50,96,79,56,30.07,29.96,12,3,14,0.00
2013-1-26,67,53,48,63,50,47,97,92,71,29.97,29.93,19,2,19,0.01
2013-2-5,57,50,42,50,46,40,95,87,75,30.07,30.01,7,2,10,0.00
2013-2-6,60,48,37,50,43,35,96,83,59,30.13,30.06,13,3,16,0.01
2013-2-7,60,48,35,50,43,33,95,83,59,30.13,30.00,12,3,15,0.00
2013-2-8,55,44,34,50,40,33,95,89,67,30.00,29.88,11,2,15,0.18
2013-2-9,61,43,31,51,38,29,96,85,55,30.08,29.96,13,2,15,0.00
2013-2-10,60,44,31,49,39,30,96,86,63,30.08,29.99,7,1,9,0.01
2013-2-11,59,45,33,50,40,31,96,86,56,30.22,30.03,10,2,13,0.01
2013-2-12,63,46,34,52,42,32,96,87,67,30.32,30.23,10,2,12,0.01
2013-2-13,67,48,35,55,42,34,96,81,44,30.28,30.15,11,2,14,0.01
2013-2-14,80,54,39,55,43,37,94,69,28,30.17,30.06,11,2,12,0.00
2013-2-15,81,64,51,46,40,34,70,44,19,30.17,30.11,11,3,17,0.00
2013-2-16,86,60,41,48,38,28,76,47,15,30.14,29.98,8,2,10,0.00
2013-2-17,64,48,37,51,42,33,94,80,58,30.00,29.93,10,3,17,0.00
2013-2-18,53,49,43,50,45,41,95,87,77,30.03,29.95,11,2,14,0.00
2013-2-19,56,46,36,48,41,33,93,82,61,29.95,29.73,14,2,18,0.17
2013-2-20,59,45,32,48,39,29,94,80,54,30.03,29.78,15,4,20,0.01
2013-2-21,64,45,32,46,39,30,95,81,47,30.14,30.00,15,3,17,0.00
2013-2-22,66,47,34,49,41,33,95,81,48,30.20,30.13,11,2,13,0.00
2013-2-23,65,49,37,53,42,32,96,77,49,30.19,30.03,22,4,25,0.01
2013-2-24,66,51,38,45,32,25,77,50,23,30.22,30.08,12,3,14,0.00
2013-2-25,64,46,32,48,39,30,94,76,43,30.22,30.09,14,3,16,0.00
2013-2-26,70,50,37,49,37,28,94,65,21,30.15,30.03,13,2,16,0.00
2013-2-27,73,50,35,50,40,31,93,71,30,30.30,30.14,10,2,12,0.00
2013-2-28,81,54,37,55,43,36,96,72,26,30.36,30.28,12,2,14,0.01
2013-3-1,88,62,48,54,47,43,85,62,28,30.35,30.14,10,2,12,0.00
2013-3-2,77,59,46,55,47,39,92,67,32,30.17,30.03,9,2,11,0.00
2013-3-3,60,54,49,55,50,47,93,86,70,30.08,29.99,17,4,17,0.00
2013-3-4,64,52,46,52,47,43,94,85,64,30.11,30.01,15,3,17,0.00
2013-3-5,60,52,49,48,45,42,90,77,57,30.08,30.00,9,2,12,0.00
2013-3-6,56,50,41,52,47,39,95,90,74,30.08,29.98,10,2,17,0.43
2013-3-7,59,49,41,53,45,39,96,86,65,29.98,29.80,7,1,10,0.23
2013-3-8,58,49,45,50,45,41,94,86,75,30.07,29.76,18,4,24,0.06
2013-3-9,62,49,36,51,43,34,95,81,58,30.27,30.06,14,2,18,0.00
2013-3-10,66,50,38,56,45,37,96,86,62,30.30,30.20,14,3,17,0.01
2013-3-11,76,52,36,56,44,35,96,76,43,30.21,30.04,8,1,14,0.01
2013-3-12,78,54,39,59,47,37,96,80,44,30.08,30.00,13,1,14,0.00
2013-3-13,85,55,41,61,48,40,96,82,32,30.10,30.03,15,1,23,0.01
2013-3-14,68,51,43,61,48,41,96,90,68,30.11,30.02,15,2,17,0.01
2013-3-15,86,59,45,61,50,44,96,78,39,30.04,29.93,12,1,14,0.01
2013-3-16,81,55,45,62,49,44,96,83,35,30.02,29.94,14,2,20,0.01
2013-3-17,71,54,44,53,46,41,94,78,41,30.04,29.97,15,3,17,0.00
2013-3-18,74,52,37,56,45,36,96,79,42,30.07,29.96,18,2,20,0.00
2013-3-19,83,57,44,56,48,40,96,76,29,30.09,30.00,16,2,18,0.01
2013-3-20,71,55,48,55,48,39,93,77,43,30.09,30.01,19,2,19,0.01
2013-3-21,64,51,42,54,46,39,96,83,62,30.04,29.90,13,3,19,0.00
2013-3-22,73,52,40,49,42,29,94,70,30,29.99,29.90,11,3,15,0.01
2013-3-23,75,55,40,47,37,25,92,54,23,30.05,29.95,13,2,17,0.00
2013-3-24,76,53,37,53,43,35,95,74,35,30.02,29.91,12,2,16,0.00
2013-3-25,71,51,38,56,44,36,96,82,36,29.96,29.89,13,2,15,0.01
2013-3-26,60,51,44,51,47,42,95,85,66,29.98,29.91,12,3,16,0.00
2013-3-27,62,53,44,55,49,42,96,88,70,30.03,29.92,13,2,14,0.00
2013-3-28,70,56,48,57,52,46,94,87,61,30.06,29.98,13,1,14,0.00
2013-3-29,64,52,43,56,49,42,96,90,71,30.08,30.00,11,2,12,0.01
2013-3-30,66,56,51,58,52,50,96,87,67,30.09,30.00,7,2,10,0.31
2013-3-31,67,57,54,58,54,52,96,89,70,30.08,30.02,9,1,13,0.00
2013-4-1,66,56,48,59,54,46,96,91,73,30.13,30.05,10,2,10,0.06
2013-4-2,68,54,42,59,50,41,97,87,62,30.13,30.02,13,2,15,0.00
2013-4-3,79,58,48,62,52,46,96,84,46,30.07,29.98,12,2,14,0.01
2013-4-4,67,57,50,57,53,49,96,87,66,30.10,30.02,12,2,13,0.02
2013-4-5,65,56,52,58,53,50,96,89,74,30.13,30.05,20,4,26,0.01
2013-4-6,67,55,43,57,50,42,96,86,59,30.16,30.05,15,5,24,0.00
2013-4-7,68,54,44,57,50,43,96,85,65,30.09,29.89,22,6,25,0.01
2013-4-8,61,54,49,51,46,42,94,76,59,29.91,29.81,23,10,32,0.00
2013-4-9,68,56,48,49,45,41,87,69,48,30.00,29.89,19,6,21,0.00
2013-4-10,82,58,41,53,42,32,88,61,19,30.11,29.99,11,2,15,0.00
2013-4-11,65,52,42,54,47,41,96,83,63,30.01,29.79,17,4,21,0.00
2013-4-12,75,54,41,58,47,39,96,81,47,29.86,29.77,13,2,17,0.00
2013-4-13,66,51,43,54,47,41,96,87,60,29.90,29.80,13,3,15,0.01
2013-4-14,66,52,41,52,45,40,96,80,57,29.86,29.77,14,4,20,0.00
2013-4-15,59,50,42,53,43,38,95,78,61,29.94,29.84,23,7,31,0.00
2013-4-16,59,48,32,46,39,29,94,72,54,30.06,29.93,25,6,29,0.00
2013-4-17,66,54,39,43,38,31,84,59,35,30.16,30.06,19,6,30,0.00
2013-4-18,76,55,38,46,38,29,91,58,23,30.20,30.15,14,2,16,0.00
2013-4-19,86,57,39,55,44,37,95,69,23,30.18,29.99,17,2,17,0.00
2013-4-20,89,59,43,57,48,41,96,71,30,30.02,29.91,11,2,17,0.00
2013-4-21,82,60,42,58,47,41,96,67,29,29.96,29.88,12,2,14,0.00
2013-4-22,63,53,46,54,50,43,95,88,70,29.97,29.86,9,2,11,0.00
2013-4-23,63,55,50,55,51,49,96,88,72,29.94,29.85,10,2,13,0.01
2013-4-24,61,55,51,55,51,49,95,86,72,29.94,29.84,8,1,8,0.01
2013-4-25,66,56,46,55,49,44,96,78,57,30.08,29.94,14,3,17,0.00
2013-4-26,70,54,42,57,49,41,96,82,59,30.16,30.08,14,3,18,0.00
2013-4-27,70,56,49,57,51,47,95,83,59,30.16,30.02,12,3,17,0.00
2013-4-28,66,55,48,56,50,46,96,85,65,30.04,29.84,11,3,14,0.00
2013-4-29,64,53,44,56,49,42,96,88,71,29.87,29.75,11,2,12,0.00
2013-4-30,52,51,50,50,50,49,96,95,95,29.79,29.77,4,1,5,0.00